Time;durP1;ratioP1;P1;durP2;ratioP2;P2;SDS_P1;SDS_P2;PMS_P1;PMS_P2;Temp;Humidity;BMP_temperature;BMP_pressure;BME280_temperature;BME280_humidity;BME280_pressure;Samples;Min_cycle;Max_cycle;Signal;HPM_P1;HPM_P2
2021/06/12 00:00:13;;;;;;;6.53;2.60;;;;;;;18.08;63.82;100302.63;5033361;28;20061;-77
2021/06/12 00:02:40;;;;;;;3.97;2.38;;;;;;;18.07;64.39;100300.09;5032450;28;20049;-76
2021/06/12 00:05:07;;;;;;;5.32;2.80;;;;;;;17.95;64.85;100302.47;5032840;28;20053;-77
2021/06/12 00:07:34;;;;;;;2.83;2.33;;;;;;;17.82;65.45;100297.72;5030819;28;20052;-79
2021/06/12 00:10:00;;;;;;;3.47;2.67;;;;;;;17.79;64.91;100289.97;5032647;28;20492;-79
2021/06/12 00:12:27;;;;;;;3.15;2.40;;;;;;;17.69;65.40;100292.13;5030228;28;20053;-77
2021/06/12 00:14:53;;;;;;;3.20;2.70;;;;;;;17.86;64.65;100287.31;5031679;28;20053;-77
2021/06/12 00:17:19;;;;;;;3.25;2.08;;;;;;;17.81;65.39;100289.78;5029773;28;20188;-78
2021/06/12 00:19:45;;;;;;;3.42;2.25;;;;;;;17.66;65.57;100295.19;5030908;28;20127;-76
2021/06/12 00:22:11;;;;;;;8.05;2.55;;;;;;;17.60;65.68;100287.81;5031984;28;20085;-77
2021/06/12 00:24:37;;;;;;;3.20;2.53;;;;;;;17.55;65.83;100287.53;5029856;28;20057;-78
2021/06/12 00:27:03;;;;;;;3.83;2.13;;;;;;;17.62;65.73;100291.16;5032835;28;20076;-76
2021/06/12 00:29:30;;;;;;;3.47;2.25;;;;;;;17.67;65.34;100277.03;5025231;28;20053;-77
2021/06/12 00:31:56;;;;;;;3.17;2.30;;;;;;;17.61;65.59;100284.06;5031350;28;20474;-77
2021/06/12 00:34:22;;;;;;;3.30;2.40;;;;;;;17.55;65.95;100279.41;5032176;28;20057;-77
2021/06/12 00:36:48;;;;;;;3.90;2.38;;;;;;;17.56;65.74;100281.06;5031282;28;20057;-78
2021/06/12 00:39:14;;;;;;;3.53;2.38;;;;;;;17.45;66.40;100281.56;5032466;28;20053;-77
2021/06/12 00:41:40;;;;;;;3.88;2.28;;;;;;;17.48;66.11;100276.56;5028580;28;20635;-77
2021/06/12 00:44:06;;;;;;;9.70;2.60;;;;;;;17.69;65.10;100270.41;5021051;28;20412;-80
2021/06/12 00:46:34;;;;;;;4.03;2.78;;;;;;;17.55;65.92;100268.53;5029014;28;20140;-78
2021/06/12 00:49:00;;;;;;;2.40;1.60;;;;;;;17.44;66.54;100274.44;5022421;28;20049;-78
2021/06/12 00:51:26;;;;;;;3.78;2.75;;;;;;;17.36;67.53;100266.38;5024125;28;20046;-77
2021/06/12 00:53:52;;;;;;;3.85;2.95;;;;;;;17.51;66.10;100267.22;5026934;28;20049;-78
2021/06/12 00:56:20;;;;;;;5.63;2.30;;;;;;;17.34;66.87;100260.31;5030175;28;20103;-78
2021/06/12 00:58:46;;;;;;;2.78;2.30;;;;;;;17.34;66.87;100263.03;5031666;28;20137;-77
2021/06/12 01:01:14;;;;;;;3.35;2.53;;;;;;;17.48;65.96;100254.03;5028794;28;20049;-76
2021/06/12 01:03:45;;;;;;;3.30;2.63;;;;;;;17.31;67.20;100252.56;5028008;28;20060;-77
2021/06/12 01:06:14;;;;;;;2.70;2.17;;;;;;;17.16;67.64;100250.66;5032334;28;20462;-78
2021/06/12 01:08:42;;;;;;;3.95;2.47;;;;;;;17.12;67.57;100257.50;5032117;28;20257;-76
2021/06/12 01:11:09;;;;;;;2.47;2.05;;;;;;;17.05;67.90;100255.72;5031713;28;20047;-78
2021/06/12 01:13:46;;;;;;;3.45;2.50;;;;;;;17.02;68.44;100251.50;5029337;28;20487;-75
2021/06/12 01:16:18;;;;;;;4.63;3.00;;;;;;;17.08;68.17;100245.34;5029761;28;20065;-78
2021/06/12 01:18:49;;;;;;;2.60;2.10;;;;;;;16.97;68.57;100240.38;5029586;28;20099;-78
2021/06/12 01:21:24;;;;;;;3.42;2.40;;;;;;;16.88;68.93;100244.19;5031751;28;20064;-78
2021/06/12 01:24:31;;;;;;;4.25;1.95;;;;;;;16.74;69.53;100250.44;5028097;28;20165;-79
2021/06/12 01:27:32;;;;;;;3.33;2.70;;;;;;;16.67;69.93;100242.16;5010761;28;21888;-79
2021/06/12 01:30:09;;;;;;;2.95;2.20;;;;;;;16.62;70.36;100245.44;5028940;28;20057;-78
2021/06/12 01:32:38;;;;;;;2.85;2.25;;;;;;;16.66;70.08;100245.91;5027540;28;20049;-78
2021/06/12 01:35:08;;;;;;;3.13;2.80;;;;;;;16.56;70.59;100245.31;5028739;28;20530;-77
2021/06/12 01:37:37;;;;;;;2.20;1.75;;;;;;;16.53;70.49;100246.53;5029552;28;20488;-78
2021/06/12 01:40:04;;;;;;;4.10;2.70;;;;;;;16.54;70.77;100247.38;5028978;28;20503;-78
2021/06/12 01:42:32;;;;;;;4.45;3.13;;;;;;;16.70;70.02;100246.44;5023788;28;20459;-77
2021/06/12 01:45:00;;;;;;;3.60;2.72;;;;;;;16.69;70.15;100248.28;5028744;28;20076;-79
2021/06/12 01:47:31;;;;;;;4.72;2.63;;;;;;;16.69;70.38;100247.44;5022901;28;20044;-79
2021/06/12 01:49:58;;;;;;;3.33;2.28;;;;;;;16.66;70.56;100244.03;5026116;28;20407;-80
2021/06/12 01:52:25;;;;;;;5.35;2.92;;;;;;;16.58;71.17;100244.13;5030435;28;20127;-81
2021/06/12 01:54:52;;;;;;;3.47;2.53;;;;;;;16.77;70.03;100244.66;5029083;28;20276;-79
2021/06/12 01:57:19;;;;;;;3.70;2.75;;;;;;;16.86;69.55;100243.56;5032176;28;20068;-79
2021/06/12 01:59:48;;;;;;;4.03;2.38;;;;;;;16.83;69.90;100247.47;5033691;28;20562;-77
2021/06/12 02:02:16;;;;;;;4.18;2.22;;;;;;;16.92;69.44;100248.22;5031584;28;20052;-78
2021/06/12 02:04:43;;;;;;;3.63;2.95;;;;;;;17.14;68.70;100241.88;5034260;28;20069;-78
2021/06/12 02:07:10;;;;;;;5.70;2.80;;;;;;;17.18;68.47;100242.38;5034150;28;20061;-78
2021/06/12 02:09:37;;;;;;;4.07;3.47;;;;;;;17.27;68.48;100243.09;5034766;28;20045;-79
2021/06/12 02:12:05;;;;;;;4.28;3.20;;;;;;;17.23;68.65;100239.94;5032685;28;20050;-78
2021/06/12 02:14:33;;;;;;;6.95;2.88;;;;;;;17.26;68.56;100242.25;5035491;28;20075;-79
2021/06/12 02:17:00;;;;;;;8.73;3.08;;;;;;;17.45;67.60;100235.44;5034454;28;20384;-80
2021/06/12 02:19:27;;;;;;;4.82;3.13;;;;;;;17.37;68.26;100235.53;5034666;28;20045;-78
2021/06/12 02:21:55;;;;;;;4.75;3.78;;;;;;;17.70;66.83;100239.53;5032918;28;20050;-79
2021/06/12 02:24:21;;;;;;;4.35;3.65;;;;;;;17.86;66.35;100232.19;5023120;28;20487;-80
2021/06/12 02:26:51;;;;;;;3.80;2.20;;;;;;;17.42;68.07;100233.94;5029144;28;20083;-78
2021/06/12 02:29:19;;;;;;;4.03;3.10;;;;;;;17.42;68.00;100227.66;5024902;28;20045;-78
2021/06/12 02:31:50;;;;;;;4.15;3.05;;;;;;;17.31;68.60;100225.44;5034640;28;20056;-77
2021/06/12 02:34:16;;;;;;;3.67;2.83;;;;;;;17.21;69.10;100226.56;5032920;28;20061;-78
2021/06/12 02:36:42;;;;;;;3.83;3.38;;;;;;;17.19;69.06;100225.91;5034532;28;20052;-77
2021/06/12 02:39:09;;;;;;;4.95;3.08;;;;;;;17.10;69.54;100234.31;5025014;28;20111;-78
2021/06/12 02:41:37;;;;;;;3.78;2.78;;;;;;;17.02;69.84;100237.94;5031705;28;20045;-80
2021/06/12 02:44:04;;;;;;;4.15;3.35;;;;;;;17.08;69.44;100234.50;5032823;28;20053;-77
2021/06/12 02:46:32;;;;;;;4.30;3.47;;;;;;;17.40;68.42;100237.84;5042447;28;20060;-79
2021/06/12 02:49:03;;;;;;;3.83;3.10;;;;;;;17.25;69.09;100227.84;5033519;28;20350;-78
2021/06/12 02:51:32;;;;;;;3.50;2.60;;;;;;;17.14;69.35;100231.03;5034190;28;20052;-78
2021/06/12 02:53:58;;;;;;;6.53;3.30;;;;;;;17.17;69.39;100241.53;5033700;28;20049;-77
2021/06/12 02:56:26;;;;;;;6.07;3.72;;;;;;;17.41;68.65;100240.41;5033368;28;20507;-79
2021/06/12 02:58:56;;;;;;;6.93;3.72;;;;;;;17.69;67.89;100237.00;5027015;28;20057;-80
2021/06/12 03:01:24;;;;;;;4.78;3.53;;;;;;;17.71;67.59;100241.22;5037908;28;20049;-78
2021/06/12 03:03:52;;;;;;;4.60;3.33;;;;;;;17.55;68.13;100241.41;5033766;28;20046;-80
2021/06/12 03:06:20;;;;;;;3.38;2.70;;;;;;;17.48;68.90;100251.31;5031138;28;20080;-78
2021/06/12 03:08:48;;;;;;;4.55;3.20;;;;;;;17.58;68.23;100243.72;5035554;28;20149;-80
2021/06/12 03:11:16;;;;;;;4.60;3.97;;;;;;;17.81;66.90;100258.03;5035992;28;20068;-79
2021/06/12 03:13:46;;;;;;;4.55;3.67;;;;;;;17.71;67.52;100262.94;5027416;28;20053;-80
2021/06/12 03:16:14;;;;;;;5.22;4.15;;;;;;;17.81;67.63;100251.78;5034755;28;20049;-79
2021/06/12 03:18:43;;;;;;;6.45;4.32;;;;;;;17.81;67.31;100251.78;5036004;28;20080;-79
2021/06/12 03:21:11;;;;;;;6.95;4.28;;;;;;;17.82;67.68;100246.16;5034920;28;20056;-77
2021/06/12 03:23:38;;;;;;;6.88;5.30;;;;;;;17.74;67.71;100257.09;5035561;28;20045;-78
2021/06/12 03:26:04;;;;;;;6.35;4.43;;;;;;;17.85;67.54;100254.94;5027227;28;20053;-79
2021/06/12 03:28:31;;;;;;;8.45;4.57;;;;;;;17.59;68.60;100260.84;5028121;28;20049;-80
2021/06/12 03:31:01;;;;;;;9.00;4.53;;;;;;;17.48;69.05;100264.88;5031956;28;20060;-78
2021/06/12 03:33:27;;;;;;;5.00;3.83;;;;;;;17.32;70.16;100273.22;5034739;28;20061;-80
2021/06/12 03:35:54;;;;;;;5.78;3.58;;;;;;;17.39;69.53;100275.00;5035263;28;20056;-78
2021/06/12 03:38:21;;;;;;;7.28;4.30;;;;;;;17.68;68.57;100273.28;5027445;28;21051;-79
2021/06/12 03:40:47;;;;;;;4.13;3.67;;;;;;;17.56;69.20;100266.66;5034016;28;20046;-78
2021/06/12 03:43:14;;;;;;;5.78;4.57;;;;;;;17.83;68.23;100274.97;5030893;28;20045;-78
2021/06/12 03:45:42;;;;;;;7.47;4.03;;;;;;;17.78;68.03;100269.28;5035431;28;20480;-79
2021/06/12 03:48:11;;;;;;;4.90;4.40;;;;;;;17.93;67.74;100269.25;5031807;28;20041;-78
2021/06/12 03:50:38;;;;;;;4.95;3.92;;;;;;;17.81;68.17;100270.78;5023973;28;20053;-78
2021/06/12 03:53:06;;;;;;;4.85;3.17;;;;;;;17.81;68.40;100268.06;5027882;28;20049;-79
2021/06/12 03:55:33;;;;;;;4.65;3.80;;;;;;;17.76;69.29;100274.06;5034364;28;20515;-80
2021/06/12 03:57:59;;;;;;;4.40;3.97;;;;;;;17.73;69.44;100266.28;5037860;28;20057;-79
2021/06/12 04:00:25;;;;;;;7.13;5.05;;;;;;;17.73;69.00;100260.84;5040052;28;20149;-77
2021/06/12 04:02:51;;;;;;;5.78;3.72;;;;;;;17.70;69.41;100261.25;5036338;28;20107;-78
2021/06/12 04:05:19;;;;;;;5.15;3.70;;;;;;;17.86;68.39;100267.47;5033432;28;20052;-78
2021/06/12 04:07:45;;;;;;;5.22;3.92;;;;;;;17.86;68.79;100270.19;5021464;28;20041;-79
2021/06/12 04:10:11;;;;;;;6.93;4.05;;;;;;;17.99;68.03;100268.47;5033397;28;20053;-78
2021/06/12 04:12:38;;;;;;;5.18;4.00;;;;;;;17.98;68.34;100258.63;5023041;28;20051;-78
2021/06/12 04:15:05;;;;;;;8.65;4.00;;;;;;;17.92;68.99;100258.59;5034127;28;20053;-80
2021/06/12 04:17:31;;;;;;;5.80;4.03;;;;;;;18.00;68.01;100261.19;5024632;28;20056;-77
2021/06/12 04:19:57;;;;;;;5.40;4.05;;;;;;;17.96;68.70;100259.88;5034057;28;20326;-79
2021/06/12 04:22:25;;;;;;;4.90;4.18;;;;;;;18.07;68.54;100264.81;5032032;28;20053;-78
2021/06/12 04:24:51;;;;;;;6.53;4.22;;;;;;;18.24;67.31;100255.38;5033732;28;20053;-77
2021/06/12 04:27:17;;;;;;;5.00;3.85;;;;;;;18.24;67.81;100263.53;5032552;28;20056;-76
2021/06/12 04:29:43;;;;;;;5.40;3.63;;;;;;;18.29;67.72;100271.94;5022876;28;20053;-80
2021/06/12 04:32:09;;;;;;;3.83;3.35;;;;;;;18.41;67.26;100264.94;5020378;28;20281;-77
2021/06/12 04:34:35;;;;;;;5.82;3.80;;;;;;;18.68;66.78;100279.66;5033366;28;20053;-77
2021/06/12 04:37:02;;;;;;;5.05;3.30;;;;;;;18.60;67.41;100289.81;5031780;28;20046;-77
2021/06/12 04:39:30;;;;;;;4.68;3.83;;;;;;;18.57;67.42;100287.44;5033155;28;20133;-77
2021/06/12 04:41:56;;;;;;;5.47;4.00;;;;;;;18.78;66.28;100292.06;5032401;28;20077;-76
2021/06/12 04:44:21;;;;;;;5.28;3.90;;;;;;;18.85;66.23;100288.38;5034037;28;20411;-79
2021/06/12 04:46:47;;;;;;;5.72;3.75;;;;;;;18.91;65.90;100293.00;5032953;28;20484;-79
2021/06/12 04:49:13;;;;;;;5.68;4.22;;;;;;;18.92;65.70;100283.81;5031090;28;20065;-78
2021/06/12 04:51:39;;;;;;;4.72;3.53;;;;;;;18.82;66.18;100283.31;5032264;28;20446;-76
2021/06/12 04:54:05;;;;;;;5.82;3.67;;;;;;;18.96;65.63;100282.41;5033319;28;20049;-80
2021/06/12 04:56:32;;;;;;;4.95;4.22;;;;;;;18.85;66.27;100282.94;5031952;28;20525;-78
2021/06/12 04:58:58;;;;;;;6.07;4.03;;;;;;;18.96;65.66;100276.13;5032262;28;20446;-79
2021/06/12 05:01:24;;;;;;;6.82;4.32;;;;;;;19.01;65.59;100270.09;5032203;28;20092;-78
2021/06/12 05:03:50;;;;;;;7.47;4.75;;;;;;;19.10;65.15;100268.91;5033018;28;20085;-80
2021/06/12 05:06:16;;;;;;;4.10;3.60;;;;;;;19.12;65.43;100266.81;5024643;28;20046;-79
2021/06/12 05:08:41;;;;;;;5.30;3.53;;;;;;;19.05;65.60;100263.19;5033616;28;20132;-78
2021/06/12 05:11:07;;;;;;;4.93;4.13;;;;;;;19.10;65.45;100260.72;5023679;28;20439;-79
2021/06/12 05:13:35;;;;;;;5.13;4.55;;;;;;;19.23;65.06;100250.78;5029178;28;20054;-79
2021/06/12 05:16:01;;;;;;;7.70;3.90;;;;;;;19.17;65.08;100242.56;5029281;28;20083;-79
2021/06/12 05:18:33;;;;;;;6.13;3.80;;;;;;;19.06;65.85;100246.69;5029986;28;20484;-79
2021/06/12 05:20:58;;;;;;;7.13;4.40;;;;;;;19.14;65.81;100251.13;5030859;28;20077;-78
2021/06/12 05:23:24;;;;;;;5.75;4.72;;;;;;;19.15;65.72;100263.69;5030941;28;20060;-80
2021/06/12 05:25:50;;;;;;;5.80;5.10;;;;;;;18.94;66.76;100268.16;5023204;28;20074;-79
2021/06/12 05:28:24;;;;;;;5.32;4.25;;;;;;;18.86;66.60;100265.59;5023876;28;20099;-79
2021/06/12 05:30:51;;;;;;;6.50;4.95;;;;;;;18.93;66.49;100274.63;5030542;28;20099;-77
2021/06/12 05:33:17;;;;;;;7.43;4.93;;;;;;;18.89;66.77;100267.91;5032182;28;20053;-76
2021/06/12 05:35:43;;;;;;;6.88;4.30;;;;;;;18.81;66.92;100264.47;5033237;28;20049;-79
2021/06/12 05:38:09;;;;;;;5.32;4.10;;;;;;;18.75;67.49;100268.84;5032844;28;20095;-81
2021/06/12 05:40:35;;;;;;;7.78;4.68;;;;;;;18.74;67.61;100267.16;5032679;28;20061;-79
2021/06/12 05:43:01;;;;;;;5.60;4.50;;;;;;;18.76;67.93;100273.25;5033363;28;20049;-79
2021/06/12 05:45:27;;;;;;;8.15;5.35;;;;;;;18.74;67.68;100267.16;5029469;28;20107;-79
2021/06/12 05:47:54;;;;;;;7.00;5.00;;;;;;;18.81;67.92;100265.31;5032724;28;20050;-80
2021/06/12 05:50:20;;;;;;;6.95;4.88;;;;;;;18.49;68.94;100249.56;5033657;28;20088;-80
2021/06/12 05:52:46;;;;;;;6.65;5.55;;;;;;;18.58;68.94;100264.66;5034666;28;20095;-79
2021/06/12 05:55:12;;;;;;;6.13;5.53;;;;;;;18.70;68.71;100258.53;5036358;28;20518;-77
2021/06/12 05:57:38;;;;;;;6.32;5.65;;;;;;;18.70;69.04;100253.09;5037239;28;20041;-78
2021/06/12 06:00:06;;;;;;;6.75;5.03;;;;;;;18.82;69.07;100258.00;5037835;28;20125;-79
2021/06/12 06:02:32;;;;;;;7.10;5.63;;;;;;;18.95;68.33;100249.97;5038873;28;20113;-76
2021/06/12 06:04:59;;;;;;;7.82;5.68;;;;;;;19.10;68.44;100252.56;5038666;28;20076;-79
2021/06/12 06:07:25;;;;;;;10.57;6.38;;;;;;;19.19;67.91;100252.22;5031219;28;20050;-79
2021/06/12 06:09:51;;;;;;;7.28;5.90;;;;;;;19.29;67.73;100251.84;5039959;28;20060;-78
2021/06/12 06:12:17;;;;;;;7.18;5.35;;;;;;;19.36;67.60;100257.34;5035791;28;20060;-78
2021/06/12 06:14:42;;;;;;;7.25;5.85;;;;;;;19.52;66.66;100251.53;5035084;28;20492;-79
2021/06/12 06:17:08;;;;;;;7.80;5.57;;;;;;;19.67;66.89;100256.91;5035173;28;20148;-76
2021/06/12 06:19:34;;;;;;;6.97;6.13;;;;;;;19.71;66.81;100260.88;5033717;28;20136;-79
2021/06/12 06:22:01;;;;;;;7.25;5.07;;;;;;;19.79;66.10;100250.66;5032593;28;20049;-78
2021/06/12 06:24:27;;;;;;;7.75;5.40;;;;;;;19.85;66.12;100240.81;5033339;28;20053;-79
2021/06/12 06:26:53;;;;;;;7.65;5.32;;;;;;;20.06;65.65;100237.13;5033747;28;20095;-77
2021/06/12 06:29:19;;;;;;;7.78;5.35;;;;;;;20.31;64.50;100240.09;5033809;28;20119;-81
2021/06/12 06:31:45;;;;;;;5.10;4.13;;;;;;;20.45;63.95;100230.91;5032937;28;20263;-76
2021/06/12 06:34:11;;;;;;;5.63;4.70;;;;;;;20.57;63.07;100234.69;5033653;28;20425;-77
2021/06/12 06:36:37;;;;;;;5.80;4.03;;;;;;;20.68;63.35;100244.13;5033454;28;20500;-79
2021/06/12 06:39:05;;;;;;;4.75;4.25;;;;;;;20.63;62.92;100249.41;5032956;28;20278;-76
2021/06/12 06:41:31;;;;;;;7.32;4.32;;;;;;;20.66;63.11;100252.53;5023376;28;20057;-77
2021/06/12 06:43:57;;;;;;;6.07;3.92;;;;;;;20.64;62.70;100251.91;5035176;28;20557;-77
2021/06/12 06:46:23;;;;;;;5.60;3.90;;;;;;;20.77;62.08;100248.34;5037945;28;20042;-78
2021/06/12 06:48:49;;;;;;;4.70;3.97;;;;;;;20.86;62.00;100243.50;5036979;28;20426;-79
2021/06/12 06:51:15;;;;;;;5.32;3.47;;;;;;;21.05;60.96;100236.34;5035917;28;20261;-78
2021/06/12 06:53:41;;;;;;;4.05;3.10;;;;;;;21.40;59.92;100239.66;5036235;28;20084;-80
2021/06/12 06:56:08;;;;;;;6.97;4.10;;;;;;;21.66;60.57;100238.72;5035858;28;20138;-77
2021/06/12 06:58:34;;;;;;;5.68;4.32;;;;;;;21.91;58.15;100236.09;5017378;28;20049;-80
2021/06/12 07:01:00;;;;;;;6.03;4.20;;;;;;;22.03;58.09;100239.81;5035889;28;20049;-79
2021/06/12 07:03:26;;;;;;;4.40;3.10;;;;;;;22.01;57.56;100239.16;5026626;28;20542;-77
2021/06/12 07:05:53;;;;;;;6.13;4.47;;;;;;;22.15;58.03;100238.09;5029623;28;20095;-79
2021/06/12 07:08:19;;;;;;;6.70;5.25;;;;;;;22.07;57.95;100232.88;5035744;28;20049;-79
2021/06/12 07:10:45;;;;;;;9.50;6.18;;;;;;;22.03;57.67;100228.88;5033139;28;20107;-79
2021/06/12 07:13:17;;;;;;;9.85;6.38;;;;;;;21.92;58.23;100244.06;5029564;28;20068;-79
2021/06/12 07:15:43;;;;;;;9.40;6.38;;;;;;;21.88;58.34;100232.72;5032160;28;20056;-78
2021/06/12 07:18:09;;;;;;;8.70;6.10;;;;;;;22.10;58.56;100229.69;5025632;28;20648;-78
2021/06/12 07:20:35;;;;;;;8.55;5.68;;;;;;;22.14;57.98;100220.00;5034425;28;20562;-79
2021/06/12 07:23:01;;;;;;;11.60;7.35;;;;;;;22.01;58.65;100225.50;5033409;28;20314;-80
2021/06/12 07:25:27;;;;;;;12.00;7.45;;;;;;;22.00;58.52;100230.13;5033848;28;20061;-80
2021/06/12 07:27:52;;;;;;;11.60;7.75;;;;;;;22.05;58.47;100222.13;5028312;28;20053;-78
2021/06/12 07:30:20;;;;;;;10.18;6.50;;;;;;;22.29;58.12;100215.06;5032784;28;20069;-77
2021/06/12 07:32:46;;;;;;;11.80;8.23;;;;;;;22.46;57.69;100215.34;5025182;28;20111;-77
2021/06/12 07:35:13;;;;;;;10.98;7.38;;;;;;;22.49;57.40;100206.69;5033735;28;20042;-77
2021/06/12 07:37:39;;;;;;;10.75;7.53;;;;;;;22.48;57.50;100205.84;5033857;28;20555;-78
2021/06/12 07:40:07;;;;;;;9.68;6.93;;;;;;;22.80;57.39;100214.00;5032837;28;20049;-80
2021/06/12 07:42:32;;;;;;;10.38;6.40;;;;;;;22.90;57.45;100210.78;5032749;28;20060;-77
2021/06/12 07:44:59;;;;;;;12.02;7.28;;;;;;;22.72;57.47;100217.03;5032781;28;20045;-77
2021/06/12 07:47:26;;;;;;;9.23;6.78;;;;;;;22.83;57.18;100209.97;5033507;28;20045;-77
2021/06/12 07:49:52;;;;;;;12.45;8.00;;;;;;;22.66;57.42;100213.28;5034112;28;20077;-80
2021/06/12 07:52:18;;;;;;;8.90;5.78;;;;;;;22.62;58.15;100213.97;5025787;28;20053;-79
2021/06/12 07:54:44;;;;;;;12.75;8.38;;;;;;;22.65;57.31;100208.88;5033509;28;20050;-77
2021/06/12 07:57:21;;;;;;;;;;;;;;;;;;;;;
2021/06/12 07:59:47;;;;;;;13.63;8.95;;;;;;;22.99;56.70;100204.81;5030422;28;20729;-79
2021/06/12 08:02:15;;;;;;;11.82;7.82;;;;;;;23.16;55.73;100196.00;5032375;28;20053;-79
2021/06/12 08:04:43;;;;;;;13.90;9.70;;;;;;;22.90;56.59;100192.47;5031152;28;20511;-78
2021/06/12 08:07:09;;;;;;;10.77;7.38;;;;;;;22.97;56.03;100195.16;5035395;28;20045;-80
2021/06/12 08:09:36;;;;;;;13.63;9.18;;;;;;;22.40;58.09;100177.97;5034785;28;20535;-81
2021/06/12 08:12:02;;;;;;;12.07;8.40;;;;;;;22.66;57.54;100190.56;5035562;28;20049;-80
2021/06/12 08:14:38;;;;;;;10.55;7.97;;;;;;;22.90;56.80;100181.53;5034353;28;20115;-79
2021/06/12 08:17:04;;;;;;;10.93;7.25;;;;;;;23.34;55.63;100194.09;5031069;28;20560;-78
2021/06/12 08:19:30;;;;;;;9.48;6.68;;;;;;;23.66;55.10;100185.72;5033072;28;20046;-79
2021/06/12 08:21:57;;;;;;;11.10;8.43;;;;;;;23.25;55.01;100191.91;5032364;28;20103;-78
2021/06/12 08:24:23;;;;;;;11.40;8.73;;;;;;;22.65;56.45;100181.53;5031937;28;20188;-77
2021/06/12 08:26:49;;;;;;;10.85;7.25;;;;;;;22.24;57.15;100179.34;5033675;28;20067;-79
2021/06/12 08:29:15;;;;;;;10.07;7.63;;;;;;;21.83;58.97;100183.38;5032564;28;20085;-77
2021/06/12 08:31:41;;;;;;;13.55;8.57;;;;;;;21.58;59.29;100172.38;5033008;28;20052;-78
2021/06/12 08:34:07;;;;;;;11.52;8.05;;;;;;;21.13;61.51;100168.75;5031715;28;20053;-78
2021/06/12 08:36:33;;;;;;;11.18;5.95;;;;;;;21.14;61.14;100175.88;5033028;28;20526;-78
2021/06/12 08:39:00;;;;;;;12.68;7.90;;;;;;;21.25;61.17;100180.69;5025651;28;20473;-78
2021/06/12 08:41:26;;;;;;;9.20;6.55;;;;;;;21.06;62.15;100188.91;5032696;28;20045;-78
2021/06/12 08:43:58;;;;;;;9.13;5.93;;;;;;;20.86;62.76;100191.69;5030313;28;20060;-77
2021/06/12 08:46:25;;;;;;;8.60;5.30;;;;;;;20.66;64.69;100199.88;5031457;28;20045;-79
2021/06/12 08:48:51;;;;;;;16.67;9.57;;;;;;;20.73;67.11;100201.56;5034363;28;20099;-77
2021/06/12 08:51:17;;;;;;;10.57;8.50;;;;;;;20.16;70.01;100199.41;5031326;28;20041;-77
2021/06/12 08:53:43;;;;;;;12.77;9.00;;;;;;;19.88;72.38;100196.00;5031086;28;20052;-80
2021/06/12 08:56:10;;;;;;;11.30;9.63;;;;;;;19.25;75.88;100196.16;5031429;28;20056;-79
2021/06/12 08:58:36;;;;;;;13.65;10.75;;;;;;;19.11;75.84;100197.97;5027280;28;20057;-78
2021/06/12 09:01:03;;;;;;;12.55;9.05;;;;;;;19.11;75.09;100187.09;5027926;28;20049;-77
2021/06/12 09:03:29;;;;;;;15.45;9.73;;;;;;;19.26;75.54;100181.50;5030554;28;20504;-77
2021/06/12 09:05:57;;;;;;;13.32;9.77;;;;;;;19.37;75.84;100188.25;5027895;28;20439;-78
2021/06/12 09:08:24;;;;;;;9.50;7.60;;;;;;;19.67;75.01;100188.84;5029991;28;20045;-78
2021/06/12 09:10:55;;;;;;;13.55;10.20;;;;;;;19.93;73.08;100197.06;5031249;28;20129;-79
2021/06/12 09:13:38;;;;;;;14.40;10.20;;;;;;;19.93;72.67;100193.50;5029877;28;20144;-81
2021/06/12 09:16:05;;;;;;;16.60;11.55;;;;;;;19.98;70.12;100193.72;5019957;28;20049;-79
2021/06/12 09:18:39;;;;;;;15.25;11.25;;;;;;;19.89;71.11;100197.66;5026039;28;20041;-77
2021/06/12 09:21:06;;;;;;;12.77;9.40;;;;;;;19.70;71.42;100199.31;5030090;28;20114;-76
2021/06/12 09:23:40;;;;;;;16.20;11.50;;;;;;;19.57;72.90;100197.38;5025056;28;20057;-79
2021/06/12 09:26:07;;;;;;;15.68;11.73;;;;;;;19.30;72.71;100190.97;5031197;28;20049;-77
2021/06/12 09:28:49;;;;;;;17.23;12.52;;;;;;;19.18;73.84;100196.13;5019778;28;20055;-78
2021/06/12 09:31:17;;;;;;;18.73;12.35;;;;;;;19.28;72.29;100196.59;5023762;28;20684;-77
2021/06/12 09:33:43;;;;;;;14.27;11.35;;;;;;;19.47;71.46;100211.34;5029248;28;20050;-77
2021/06/12 09:36:10;;;;;;;15.18;11.52;;;;;;;19.52;72.11;100211.56;5029574;28;20045;-77
2021/06/12 09:38:38;;;;;;;18.70;11.05;;;;;;;19.65;71.32;100202.63;5033339;28;20095;-78
2021/06/12 09:41:23;;;;;;;14.70;10.07;;;;;;;19.78;70.93;100208.16;5025492;28;20054;-78
2021/06/12 09:43:50;;;;;;;13.35;8.63;;;;;;;20.06;70.17;100197.09;5028848;28;20046;-78
2021/06/12 09:46:34;;;;;;;14.43;11.00;;;;;;;20.49;69.92;100198.66;5034240;28;20180;-78
2021/06/12 09:49:01;;;;;;;15.00;10.60;;;;;;;20.56;69.58;100189.41;5027370;28;20107;-79
2021/06/12 09:51:27;;;;;;;12.88;8.85;;;;;;;21.32;64.45;100179.84;5032128;28;20061;-78
2021/06/12 09:53:55;;;;;;;10.27;8.25;;;;;;;21.49;62.73;100167.38;5031228;28;20053;-81
2021/06/12 09:56:24;;;;;;;14.95;8.65;;;;;;;21.76;64.21;100179.84;5030495;28;20472;-81
2021/06/12 09:58:52;;;;;;;10.00;6.85;;;;;;;22.36;63.41;100174.00;5033406;28;20510;-78
2021/06/12 10:01:20;;;;;;;8.85;6.70;;;;;;;22.74;60.89;100182.94;5033152;28;20070;-78
2021/06/12 10:03:47;;;;;;;8.80;5.10;;;;;;;23.05;59.16;100187.47;5033588;28;20301;-78
2021/06/12 10:06:16;;;;;;;10.35;5.95;;;;;;;23.38;56.24;100191.75;5033827;28;20111;-80
2021/06/12 10:08:46;;;;;;;12.27;4.63;;;;;;;23.73;56.27;100191.13;5032365;28;20053;-79
2021/06/12 10:11:12;;;;;;;5.82;4.43;;;;;;;23.89;55.77;100185.81;5031825;28;20050;-77
2021/06/12 10:13:39;;;;;;;6.45;4.15;;;;;;;23.84;54.89;100182.94;5023910;28;20052;-78
2021/06/12 10:16:07;;;;;;;7.57;5.18;;;;;;;23.23;53.87;100181.19;5033688;28;20080;-80
2021/06/12 10:18:34;;;;;;;11.07;4.50;;;;;;;23.42;54.82;100178.41;5036031;28;20050;-79
2021/06/12 10:21:08;;;;;;;5.28;4.32;;;;;;;23.77;52.82;100175.88;5035487;28;20509;-80
2021/06/12 10:23:35;;;;;;;7.10;5.13;;;;;;;23.55;53.71;100172.75;5057751;28;20052;-78
2021/06/12 10:26:01;;;;;;;6.80;4.57;;;;;;;23.87;52.91;100179.75;5038217;28;20050;-79
2021/06/12 10:28:27;;;;;;;6.68;4.75;;;;;;;23.84;51.74;100182.13;5035952;28;20302;-78
2021/06/12 10:30:53;;;;;;;7.97;4.93;;;;;;;23.89;52.24;100174.84;5035109;28;20045;-78
2021/06/12 10:33:22;;;;;;;6.05;3.80;;;;;;;24.12;51.70;100160.38;5034513;28;20041;-77
2021/06/12 10:35:48;;;;;;;8.80;4.15;;;;;;;24.06;51.21;100166.00;5039542;28;20099;-78
2021/06/12 10:38:15;;;;;;;7.25;4.55;;;;;;;23.83;51.24;100174.97;5036201;28;20487;-77
2021/06/12 10:40:44;;;;;;;6.55;3.85;;;;;;;24.49;49.46;100165.72;5034810;28;20401;-79
2021/06/12 10:43:13;;;;;;;6.50;4.07;;;;;;;24.93;48.41;100152.47;5035360;28;20050;-78
2021/06/12 10:45:40;;;;;;;5.97;3.53;;;;;;;24.66;48.85;100147.50;5034738;28;20053;-79
2021/06/12 10:48:07;;;;;;;6.90;3.80;;;;;;;23.96;50.08;100147.34;5036396;28;20057;-79
2021/06/12 10:50:42;;;;;;;5.65;3.25;;;;;;;23.75;50.39;100150.63;5030891;28;20064;-79
2021/06/12 10:53:17;;;;;;;6.32;4.13;;;;;;;24.14;48.56;100136.31;5032379;28;20057;-80
2021/06/12 10:55:45;;;;;;;4.60;3.22;;;;;;;24.66;47.61;100141.16;5035853;28;20424;-78
2021/06/12 10:58:44;;;;;;;5.45;3.10;;;;;;;24.77;46.53;100127.44;5036356;28;20049;-77
2021/06/12 11:01:23;;;;;;;5.63;2.40;;;;;;;24.95;44.66;100139.34;5031096;28;20079;-79
2021/06/12 11:04:03;;;;;;;6.50;2.92;;;;;;;24.12;47.57;100135.72;5026596;28;20050;-79
2021/06/12 11:06:38;;;;;;;4.47;2.20;;;;;;;25.18;46.21;100136.59;5035990;28;20431;-77
2021/06/12 11:09:31;;;;;;;4.22;2.63;;;;;;;24.58;44.75;100139.63;5034331;28;20057;-78
2021/06/12 11:11:59;;;;;;;4.60;2.55;;;;;;;23.94;47.71;100124.84;5034538;28;20049;-76
2021/06/12 11:14:33;;;;;;;4.90;2.80;;;;;;;23.71;48.20;100116.53;5034803;28;20053;-76
2021/06/12 11:17:15;;;;;;;3.22;2.30;;;;;;;24.10;47.72;100113.19;5029877;28;20053;-78
2021/06/12 11:19:44;;;;;;;4.85;2.70;;;;;;;24.49;45.13;100114.44;5035374;28;20275;-77
2021/06/12 11:22:31;;;;;;;5.10;2.50;;;;;;;24.89;44.95;100096.41;5028436;28;20049;-78
2021/06/12 11:25:38;;;;;;;3.13;2.50;;;;;;;25.16;44.45;100099.47;5024838;28;20058;-79
2021/06/12 11:28:27;;;;;;;7.22;3.72;;;;;;;25.00;44.21;100093.63;5022724;28;20046;-77